Time;durP1;ratioP1;P1;durP2;ratioP2;P2;SDS_P1;SDS_P2;PMS_P1;PMS_P2;Temp;Humidity;BMP_temperature;BMP_pressure;BME280_temperature;BME280_humidity;BME280_pressure;Samples;Min_cycle;Max_cycle;Signal;HPM_P1;HPM_P2
2022/03/25 00:01:54;;;;;;;37.05;27.63;;;4.30;99.90;;;;;;5015850;28;20052;-73
2022/03/25 00:04:19;;;;;;;32.15;28.65;;;4.20;99.90;;;;;;5033507;28;20053;-72
2022/03/25 00:06:45;;;;;;;31.23;27.88;;;4.10;99.90;;;;;;5034147;28;20056;-72
2022/03/25 00:09:11;;;;;;;35.90;27.88;;;3.90;99.90;;;;;;5033537;28;20049;-72
2022/03/25 00:11:36;;;;;;;86.25;29.33;;;3.90;99.90;;;;;;5034142;28;20091;-73
2022/03/25 00:14:02;;;;;;;30.77;27.58;;;3.80;99.90;;;;;;5016132;28;20439;-73
2022/03/25 00:16:28;;;;;;;38.17;30.55;;;3.80;99.90;;;;;;5034069;28;20054;-73
2022/03/25 00:18:54;;;;;;;84.70;31.55;;;3.70;99.90;;;;;;4999800;28;20045;-73
2022/03/25 00:21:20;;;;;;;100.93;31.15;;;3.70;99.90;;;;;;5033939;28;20041;-72
2022/03/25 00:23:46;;;;;;;85.75;31.80;;;3.60;99.90;;;;;;4999871;28;20357;-73
2022/03/25 00:26:12;;;;;;;32.85;29.42;;;3.60;99.90;;;;;;5015905;28;20072;-74
2022/03/25 00:28:38;;;;;;;39.75;29.35;;;3.50;99.90;;;;;;5033930;28;20048;-72
2022/03/25 00:31:06;;;;;;;32.97;29.55;;;3.60;99.90;;;;;;5033517;28;20053;-73
2022/03/25 00:33:33;;;;;;;38.67;30.45;;;3.60;99.90;;;;;;5034258;28;20120;-73
2022/03/25 00:35:58;;;;;;;37.20;31.17;;;3.60;99.90;;;;;;5032440;28;20378;-72
2022/03/25 00:38:24;;;;;;;34.50;30.80;;;3.50;99.90;;;;;;5032888;28;20045;-72
2022/03/25 00:40:50;;;;;;;33.53;30.02;;;3.50;99.90;;;;;;5016610;28;20103;-72
2022/03/25 00:43:16;;;;;;;36.35;31.35;;;3.50;99.90;;;;;;5033493;28;20037;-72
2022/03/25 00:45:41;;;;;;;35.78;32.08;;;3.50;99.90;;;;;;5033918;28;20042;-72
2022/03/25 00:48:07;;;;;;;35.30;31.50;;;3.40;99.90;;;;;;5033315;28;20037;-73
2022/03/25 00:50:33;;;;;;;33.33;29.80;;;3.40;99.90;;;;;;5032875;28;20052;-73
2022/03/25 00:52:59;;;;;;;34.88;31.17;;;3.40;99.90;;;;;;5033114;28;20053;-74
2022/03/25 00:55:25;;;;;;;33.42;29.63;;;3.40;99.90;;;;;;5032875;28;20132;-72
2022/03/25 00:57:51;;;;;;;33.25;29.92;;;3.40;99.90;;;;;;5032741;28;20498;-72
2022/03/25 01:00:17;;;;;;;32.92;29.42;;;3.30;99.90;;;;;;5032307;28;20096;-72
2022/03/25 01:02:42;;;;;;;31.70;28.55;;;3.30;99.90;;;;;;5032691;28;20102;-72
2022/03/25 01:05:08;;;;;;;31.45;28.25;;;3.30;99.90;;;;;;5033171;28;20492;-72
2022/03/25 01:07:34;;;;;;;32.40;29.13;;;3.30;99.90;;;;;;5032319;28;20065;-73
2022/03/25 01:10:00;;;;;;;31.83;28.45;;;3.20;99.90;;;;;;5033072;28;20037;-73
2022/03/25 01:12:26;;;;;;;30.83;27.60;;;3.30;99.90;;;;;;5033441;28;20413;-72
2022/03/25 01:14:51;;;;;;;31.73;28.45;;;3.30;99.90;;;;;;5032205;28;20133;-72
2022/03/25 01:17:17;;;;;;;32.10;28.77;;;3.20;99.90;;;;;;5032899;28;20128;-72
2022/03/25 01:19:44;;;;;;;33.63;30.02;;;3.20;99.90;;;;;;5033298;28;20124;-72
2022/03/25 01:22:09;;;;;;;34.25;29.70;;;3.20;99.90;;;;;;5031683;28;20049;-73
2022/03/25 01:24:35;;;;;;;36.88;32.25;;;3.20;99.90;;;;;;5032020;28;20389;-72
2022/03/25 01:27:01;;;;;;;31.30;28.13;;;3.20;99.90;;;;;;5032612;28;20037;-73
2022/03/25 01:29:27;;;;;;;29.02;26.13;;;3.10;99.90;;;;;;5033183;28;20049;-72
2022/03/25 01:31:53;;;;;;;37.15;29.13;;;3.10;99.90;;;;;;5033047;28;20045;-72
2022/03/25 01:34:19;;;;;;;35.38;30.48;;;3.00;99.90;;;;;;5032685;28;20136;-72
2022/03/25 01:36:45;;;;;;;34.30;29.45;;;3.00;99.90;;;;;;5033138;28;20470;-72
2022/03/25 01:39:11;;;;;;;34.30;29.75;;;3.00;99.90;;;;;;5032514;28;20382;-72
2022/03/25 01:41:36;;;;;;;30.17;27.02;;;3.00;99.90;;;;;;5032958;28;20049;-72
2022/03/25 01:44:02;;;;;;;32.28;28.80;;;2.90;99.90;;;;;;5031268;28;20052;-73
2022/03/25 01:46:28;;;;;;;32.15;28.75;;;2.90;99.90;;;;;;5032629;28;20045;-72
2022/03/25 01:48:53;;;;;;;30.63;27.45;;;2.80;99.90;;;;;;5032734;28;20080;-72
2022/03/25 01:51:35;;;;;;;28.63;25.75;;;2.80;99.90;;;;;;5014484;28;20140;-72
2022/03/25 01:54:05;;;;;;;28.10;25.20;;;2.80;99.90;;;;;;5031259;28;20110;-76
2022/03/25 01:56:30;;;;;;;29.00;26.00;;;2.70;99.90;;;;;;5032856;28;20053;-72
2022/03/25 01:58:56;;;;;;;28.00;25.20;;;2.70;99.90;;;;;;5032403;28;20528;-72
2022/03/25 02:01:22;;;;;;;32.03;27.23;;;2.70;99.90;;;;;;5032255;28;20075;-72
2022/03/25 02:03:47;;;;;;;29.17;26.08;;;2.70;99.90;;;;;;5031528;28;20053;-72
2022/03/25 02:06:13;;;;;;;28.60;25.65;;;2.70;99.90;;;;;;5031291;28;20054;-72
2022/03/25 02:08:39;;;;;;;28.83;25.83;;;2.70;99.90;;;;;;5032542;28;20042;-72
2022/03/25 02:11:04;;;;;;;30.65;27.35;;;2.70;99.90;;;;;;5032249;28;20057;-73
2022/03/25 02:13:30;;;;;;;28.58;25.58;;;2.80;99.90;;;;;;5015048;28;20053;-72
2022/03/25 02:15:55;;;;;;;31.08;27.60;;;2.70;99.90;;;;;;5031389;28;20051;-73
2022/03/25 02:18:21;;;;;;;29.42;24.27;;;2.70;99.90;;;;;;5032173;28;20041;-72
2022/03/25 02:20:48;;;;;;;27.58;24.65;;;2.70;99.90;;;;;;5032620;28;20052;-72
2022/03/25 02:23:14;;;;;;;27.10;24.20;;;2.70;99.90;;;;;;5014256;28;20060;-73
2022/03/25 02:25:40;;;;;;;29.50;26.40;;;2.60;99.90;;;;;;5032791;28;20049;-72
2022/03/25 02:28:06;;;;;;;30.88;26.80;;;2.60;99.90;;;;;;4998888;28;20045;-73
2022/03/25 02:30:33;;;;;;;30.60;26.88;;;2.50;99.90;;;;;;5018473;28;20447;-72
2022/03/25 02:33:01;;;;;;;25.88;23.27;;;2.40;99.90;;;;;;5035874;28;20064;-73
2022/03/25 02:35:43;;;;;;;27.35;24.55;;;2.30;99.90;;;;;;5018405;28;20045;-72
2022/03/25 02:38:20;;;;;;;32.97;23.33;;;2.30;99.90;;;;;;5018833;28;20041;-72
2022/03/25 02:40:46;;;;;;;25.02;22.42;;;2.30;99.90;;;;;;5035864;28;20049;-73
2022/03/25 02:43:12;;;;;;;27.02;22.70;;;2.20;99.90;;;;;;5017796;28;20116;-72
2022/03/25 02:45:38;;;;;;;23.98;21.58;;;2.20;99.90;;;;;;5018139;28;20038;-72
2022/03/25 02:48:04;;;;;;;24.42;21.95;;;2.20;99.90;;;;;;5018067;28;20456;-72
2022/03/25 02:50:30;;;;;;;25.10;22.60;;;2.30;99.90;;;;;;5017680;28;20125;-72
2022/03/25 02:52:56;;;;;;;31.65;22.25;;;2.20;99.90;;;;;;5001518;28;20049;-72
2022/03/25 02:55:22;;;;;;;25.40;22.80;;;2.20;99.90;;;;;;5017595;28;20439;-72
2022/03/25 02:57:48;;;;;;;25.70;23.13;;;2.10;99.90;;;;;;5017887;28;20042;-72
2022/03/25 03:00:14;;;;;;;24.70;22.20;;;2.20;99.90;;;;;;5035325;28;20133;-72
2022/03/25 03:02:39;;;;;;;32.90;24.48;;;2.10;99.90;;;;;;5036110;28;20147;-72
2022/03/25 03:05:07;;;;;;;31.88;23.00;;;2.10;99.90;;;;;;5035837;28;20041;-72
2022/03/25 03:07:37;;;;;;;26.42;23.23;;;2.10;99.90;;;;;;5018082;28;20191;-73
2022/03/25 03:10:06;;;;;;;122.93;25.17;;;2.10;99.90;;;;;;5001841;28;20042;-73
2022/03/25 03:12:33;;;;;;;80.30;24.27;;;2.10;99.90;;;;;;5035236;28;20049;-73
2022/03/25 03:15:02;;;;;;;121.20;24.52;;;2.00;99.90;;;;;;5035691;28;20088;-73
2022/03/25 03:17:27;;;;;;;61.97;24.15;;;2.00;99.90;;;;;;5017684;28;20134;-72
2022/03/25 03:19:54;;;;;;;103.32;25.05;;;1.90;99.90;;;;;;5017898;28;20096;-72
2022/03/25 03:22:19;;;;;;;95.75;24.85;;;2.00;99.90;;;;;;5035083;28;20393;-72
2022/03/25 03:24:45;;;;;;;55.63;23.60;;;1.90;99.90;;;;;;5018001;28;20046;-72
2022/03/25 03:27:11;;;;;;;24.48;21.98;;;1.90;99.90;;;;;;5017751;28;20037;-72
2022/03/25 03:29:37;;;;;;;24.80;22.25;;;1.90;99.90;;;;;;5017760;28;20064;-72
2022/03/25 03:32:04;;;;;;;30.63;21.92;;;1.90;99.90;;;;;;5035155;28;20398;-72
2022/03/25 03:34:29;;;;;;;24.88;22.35;;;1.80;99.90;;;;;;5034721;28;20111;-72
2022/03/25 03:36:55;;;;;;;25.73;23.02;;;1.80;99.90;;;;;;5001501;28;20424;-73
2022/03/25 03:39:21;;;;;;;26.17;23.48;;;1.80;99.90;;;;;;5034748;28;20052;-72
2022/03/25 03:41:46;;;;;;;25.45;22.80;;;1.70;99.90;;;;;;5035188;28;20401;-72
2022/03/25 03:44:12;;;;;;;26.95;24.13;;;1.80;99.90;;;;;;5035168;28;20540;-72
2022/03/25 03:46:37;;;;;;;36.53;24.70;;;1.70;99.90;;;;;;5034238;28;20041;-72
2022/03/25 03:49:03;;;;;;;28.27;23.75;;;1.70;99.90;;;;;;5034982;28;20046;-73
2022/03/25 03:51:29;;;;;;;26.40;23.02;;;1.70;99.90;;;;;;5034531;28;20041;-72
2022/03/25 03:53:54;;;;;;;25.73;23.02;;;1.70;99.90;;;;;;5017237;28;20115;-72
2022/03/25 03:56:22;;;;;;;27.60;24.30;;;1.70;99.90;;;;;;5000718;28;20180;-72
2022/03/25 03:58:48;;;;;;;27.05;24.13;;;1.70;99.90;;;;;;5034829;28;20049;-72
2022/03/25 04:01:13;;;;;;;29.83;23.90;;;1.80;99.90;;;;;;5034872;28;20050;-72
2022/03/25 04:03:39;;;;;;;26.08;23.17;;;1.60;99.90;;;;;;5034288;28;20060;-72
2022/03/25 04:06:05;;;;;;;29.58;23.20;;;1.60;99.90;;;;;;5034608;28;20038;-72
2022/03/25 04:08:31;;;;;;;67.30;24.10;;;1.50;99.90;;;;;;5034209;28;20054;-73
2022/03/25 04:10:58;;;;;;;53.70;24.52;;;1.50;99.90;;;;;;5017025;28;20045;-73
2022/03/25 04:13:24;;;;;;;27.08;23.35;;;1.50;99.90;;;;;;5016680;28;20452;-73
2022/03/25 04:15:50;;;;;;;26.45;23.58;;;1.50;99.90;;;;;;5016945;28;20045;-72
2022/03/25 04:18:17;;;;;;;35.10;24.38;;;1.40;99.90;;;;;;5034457;28;20063;-72
2022/03/25 04:20:42;;;;;;;30.45;23.38;;;1.50;99.90;;;;;;5016078;28;20050;-73
2022/03/25 04:23:08;;;;;;;30.88;25.67;;;1.40;99.90;;;;;;5016486;28;20053;-72
2022/03/25 04:25:34;;;;;;;26.60;23.25;;;1.40;99.90;;;;;;5033856;28;20045;-72
2022/03/25 04:27:59;;;;;;;31.75;24.45;;;1.40;99.90;;;;;;5034235;28;20474;-72
2022/03/25 04:30:29;;;;;;;26.02;23.27;;;1.40;99.90;;;;;;5033853;28;20644;-72
2022/03/25 04:32:55;;;;;;;36.47;24.48;;;1.40;99.90;;;;;;5016522;28;20092;-73
2022/03/25 04:35:22;;;;;;;27.45;24.50;;;1.40;99.90;;;;;;5033350;28;20053;-73
2022/03/25 04:37:48;;;;;;;27.02;24.00;;;1.40;99.90;;;;;;5016324;28;20493;-72
2022/03/25 04:40:17;;;;;;;26.17;23.48;;;1.40;99.90;;;;;;5016316;28;20049;-72
2022/03/25 04:42:46;;;;;;;25.75;23.05;;;1.40;99.90;;;;;;5033623;28;20436;-72
2022/03/25 04:45:13;;;;;;;24.05;21.55;;;1.40;99.90;;;;;;5033897;28;20090;-72
2022/03/25 04:47:38;;;;;;;25.73;23.10;;;1.40;99.90;;;;;;5015638;28;20050;-72
2022/03/25 04:50:04;;;;;;;24.45;21.95;;;1.40;99.90;;;;;;5015940;28;20045;-72
2022/03/25 04:52:30;;;;;;;24.75;22.17;;;1.40;99.90;;;;;;5015701;28;20053;-72
2022/03/25 04:54:56;;;;;;;25.67;23.02;;;1.40;99.90;;;;;;5016314;28;20088;-73
2022/03/25 04:57:22;;;;;;;24.88;22.38;;;1.30;99.90;;;;;;5029495;28;20042;-73
2022/03/25 04:59:47;;;;;;;24.77;22.17;;;1.40;99.90;;;;;;4998783;28;20049;-72
2022/03/25 05:02:13;;;;;;;25.63;22.77;;;1.40;99.90;;;;;;5033101;28;20060;-72
2022/03/25 05:04:39;;;;;;;24.17;21.63;;;1.40;99.90;;;;;;5032731;28;20068;-72
2022/03/25 05:07:05;;;;;;;24.98;22.42;;;1.40;99.90;;;;;;5033048;28;20045;-72
2022/03/25 05:09:31;;;;;;;25.20;22.60;;;1.40;99.90;;;;;;5032727;28;20493;-73
2022/03/25 05:11:56;;;;;;;25.15;22.55;;;1.30;99.90;;;;;;5033081;28;20095;-73
2022/03/25 05:14:22;;;;;;;25.52;22.75;;;1.30;99.90;;;;;;5015393;28;20049;-72
2022/03/25 05:16:52;;;;;;;23.70;21.27;;;1.30;99.90;;;;;;5032542;28;20046;-72
2022/03/25 05:19:20;;;;;;;25.15;22.55;;;1.50;99.90;;;;;;5033126;28;20037;-72
2022/03/25 05:21:45;;;;;;;24.95;22.27;;;1.30;99.90;;;;;;5032387;28;20060;-72
2022/03/25 05:24:11;;;;;;;25.13;22.50;;;1.30;99.90;;;;;;5032739;28;20041;-72
2022/03/25 05:26:37;;;;;;;27.55;24.75;;;1.20;99.90;;;;;;5032390;28;20084;-73
2022/03/25 05:29:03;;;;;;;24.73;22.13;;;1.20;99.90;;;;;;5031640;28;20053;-73
2022/03/25 05:31:29;;;;;;;25.23;22.08;;;1.20;99.90;;;;;;5032711;28;20107;-73
2022/03/25 05:33:54;;;;;;;25.55;22.85;;;1.20;99.90;;;;;;5031982;28;20128;-73
2022/03/25 05:36:20;;;;;;;25.02;22.52;;;1.20;99.90;;;;;;5033171;28;20470;-72
2022/03/25 05:38:46;;;;;;;24.80;22.40;;;1.20;99.90;;;;;;5015065;28;20115;-73
2022/03/25 05:41:11;;;;;;;23.88;21.48;;;1.20;99.90;;;;;;5031554;28;20048;-73
2022/03/25 05:43:37;;;;;;;24.05;21.60;;;1.20;99.90;;;;;;5031097;28;20056;-73
2022/03/25 05:46:03;;;;;;;27.02;22.90;;;1.20;99.90;;;;;;5032558;28;20046;-73
2022/03/25 05:48:29;;;;;;;24.65;21.85;;;1.20;99.90;;;;;;5032503;28;20053;-76
2022/03/25 05:50:55;;;;;;;24.17;21.77;;;1.30;99.90;;;;;;5032615;28;20516;-73
2022/03/25 05:53:21;;;;;;;24.67;21.90;;;1.30;99.90;;;;;;5032443;28;20061;-72
2022/03/25 05:55:46;;;;;;;24.50;21.90;;;1.30;99.90;;;;;;5032402;28;20524;-72
2022/03/25 05:58:12;;;;;;;24.08;21.58;;;1.40;99.90;;;;;;5031820;28;20085;-73
2022/03/25 06:00:38;;;;;;;24.52;21.90;;;1.40;99.90;;;;;;5030601;28;20088;-72
2022/03/25 06:03:05;;;;;;;23.40;21.00;;;1.50;99.90;;;;;;5032712;28;20049;-72
2022/03/25 06:05:31;;;;;;;22.17;19.85;;;1.40;99.90;;;;;;5032543;28;20433;-78
2022/03/25 06:07:56;;;;;;;22.48;20.08;;;1.50;99.90;;;;;;5032616;28;20091;-73
2022/03/25 06:10:23;;;;;;;21.90;19.70;;;1.40;99.90;;;;;;5032653;28;20049;-72
2022/03/25 06:12:48;;;;;;;21.42;19.15;;;1.40;99.90;;;;;;5032187;28;20167;-73
2022/03/25 06:15:14;;;;;;;24.73;21.92;;;1.40;99.90;;;;;;5032447;28;20505;-72
2022/03/25 06:17:50;;;;;;;26.35;23.48;;;1.50;99.90;;;;;;5030798;28;20049;-73
2022/03/25 06:20:27;;;;;;;26.05;23.27;;;1.50;99.90;;;;;;5031558;28;20099;-73
2022/03/25 06:22:53;;;;;;;28.17;24.65;;;1.50;99.90;;;;;;5030946;28;20279;-73
2022/03/25 06:25:18;;;;;;;29.52;23.98;;;1.50;99.90;;;;;;5032733;28;20049;-73
2022/03/25 06:27:53;;;;;;;26.35;23.45;;;1.60;99.90;;;;;;5030856;28;20048;-73
2022/03/25 06:30:19;;;;;;;27.60;23.23;;;1.60;99.90;;;;;;5032464;28;20092;-72
2022/03/25 06:32:45;;;;;;;25.25;22.52;;;1.70;99.90;;;;;;5014602;28;20060;-72
2022/03/25 06:35:11;;;;;;;26.88;23.30;;;1.70;99.90;;;;;;5032366;28;20050;-73
2022/03/25 06:37:37;;;;;;;28.38;23.38;;;1.80;99.90;;;;;;5032066;28;20037;-73
2022/03/25 06:40:07;;;;;;;26.73;23.08;;;1.80;99.90;;;;;;5031175;28;20041;-73
2022/03/25 06:42:37;;;;;;;27.35;23.98;;;1.90;99.90;;;;;;5031243;28;20053;-73
2022/03/25 06:45:05;;;;;;;29.13;24.83;;;1.90;99.90;;;;;;5030924;28;20493;-73
2022/03/25 06:47:31;;;;;;;26.80;23.90;;;2.00;99.90;;;;;;5031016;28;20045;-73
2022/03/25 06:49:57;;;;;;;30.40;25.15;;;2.10;99.90;;;;;;5031784;28;20054;-73
2022/03/25 06:52:23;;;;;;;28.35;24.15;;;2.10;99.90;;;;;;5030404;28;20056;-73
2022/03/25 06:54:49;;;;;;;28.02;24.40;;;2.20;99.90;;;;;;5030770;28;20054;-73
2022/03/25 06:57:15;;;;;;;31.42;25.95;;;2.30;99.90;;;;;;5031046;28;20045;-72
2022/03/25 06:59:41;;;;;;;32.45;26.05;;;2.30;99.90;;;;;;5031821;28;20057;-72
2022/03/25 07:02:09;;;;;;;35.63;26.48;;;2.40;99.90;;;;;;5031186;28;20111;-72
2022/03/25 07:04:35;;;;;;;30.55;25.42;;;2.50;99.90;;;;;;5031984;28;20050;-73
2022/03/25 07:07:01;;;;;;;30.25;24.38;;;2.50;99.90;;;;;;5031564;28;20398;-74
2022/03/25 07:09:27;;;;;;;33.05;26.25;;;2.50;99.90;;;;;;5014153;28;20045;-73
2022/03/25 07:11:53;;;;;;;30.48;25.23;;;2.70;99.90;;;;;;5031497;28;20449;-73
2022/03/25 07:14:19;;;;;;;36.85;29.60;;;2.70;99.90;;;;;;5035560;28;20092;-73
2022/03/25 07:16:44;;;;;;;41.67;30.23;;;2.80;99.90;;;;;;5034946;28;20037;-73
2022/03/25 07:19:10;;;;;;;42.47;30.60;;;3.00;99.90;;;;;;5034304;28;20466;-73
2022/03/25 07:21:36;;;;;;;47.17;33.22;;;3.00;99.90;;;;;;5034404;28;20099;-73
2022/03/25 07:24:02;;;;;;;42.30;31.80;;;3.10;99.90;;;;;;5034920;28;20049;-73
2022/03/25 07:26:28;;;;;;;41.88;32.35;;;3.20;99.90;;;;;;5012758;28;20054;-73
2022/03/25 07:28:54;;;;;;;55.67;36.40;;;3.30;99.90;;;;;;5033409;28;20041;-73
2022/03/25 07:31:19;;;;;;;45.90;34.80;;;3.40;99.90;;;;;;5034790;28;20429;-73
2022/03/25 07:33:45;;;;;;;51.55;35.88;;;3.50;99.90;;;;;;5034219;28;20409;-73
2022/03/25 07:36:10;;;;;;;53.60;36.85;;;3.60;99.90;;;;;;5034545;28;20045;-73
2022/03/25 07:38:37;;;;;;;56.80;38.58;;;3.60;99.90;;;;;;5000953;28;20122;-73
2022/03/25 07:41:03;;;;;;;57.05;36.72;;;3.70;99.90;;;;;;5034295;28;20041;-74
2022/03/25 07:43:30;;;;;;;55.75;36.85;;;3.90;99.90;;;;;;5017179;28;20049;-73
2022/03/25 07:45:56;;;;;;;57.40;37.17;;;4.00;99.90;;;;;;5034263;28;20428;-74
2022/03/25 07:48:21;;;;;;;48.55;33.88;;;4.10;99.90;;;;;;5034684;28;20044;-73
2022/03/25 07:50:47;;;;;;;53.33;34.75;;;4.30;99.90;;;;;;5016150;28;20041;-73
2022/03/25 07:53:13;;;;;;;51.78;34.70;;;4.50;99.90;;;;;;5033795;28;20524;-73
2022/03/25 07:55:39;;;;;;;49.40;34.67;;;4.60;99.90;;;;;;5034413;28;20056;-74
2022/03/25 07:58:04;;;;;;;49.17;33.58;;;4.80;99.90;;;;;;5031774;28;20095;-74
2022/03/25 08:00:30;;;;;;;47.20;33.00;;;4.90;99.90;;;;;;5033962;28;20046;-73
2022/03/25 08:02:56;;;;;;;46.75;32.78;;;5.00;99.90;;;;;;5034261;28;20045;-74
2022/03/25 08:05:23;;;;;;;49.63;33.45;;;5.10;99.90;;;;;;5034661;28;20452;-74
2022/03/25 08:07:55;;;;;;;46.63;31.70;;;5.20;99.90;;;;;;5034019;28;20096;-74
2022/03/25 08:10:25;;;;;;;46.33;31.50;;;5.40;99.90;;;;;;5034636;28;20482;-73
2022/03/25 08:12:51;;;;;;;44.58;29.65;;;5.40;99.90;;;;;;5032840;28;20053;-74
2022/03/25 08:15:18;;;;;;;46.35;30.23;;;5.50;99.90;;;;;;5033178;28;20052;-73
2022/03/25 08:18:00;;;;;;;43.42;29.00;;;5.60;99.90;;;;;;5016860;28;20053;-73
2022/03/25 08:20:28;;;;;;;43.50;29.38;;;5.80;99.90;;;;;;5033276;28;20057;-73
2022/03/25 08:22:55;;;;;;;39.15;27.25;;;6.00;99.90;;;;;;5033467;28;20427;-73
2022/03/25 08:28:05;;;;;;;42.33;27.50;;;6.20;99.90;;;;;;5032851;28;20056;-74
2022/03/25 08:30:32;;;;;;;38.53;27.83;;;6.30;99.90;;;;;;5034203;28;20049;-74
2022/03/25 08:32:58;;;;;;;37.83;26.75;;;6.40;99.90;;;;;;5032603;28;20416;-74
2022/03/25 08:35:27;;;;;;;39.50;24.90;;;6.70;99.90;;;;;;5032849;28;20049;-74
2022/03/25 08:37:53;;;;;;;37.78;24.55;;;6.80;99.90;;;;;;5033562;28;20045;-73
2022/03/25 08:40:23;;;;;;;36.10;21.45;;;7.00;99.90;;;;;;5016688;28;20050;-73
2022/03/25 08:42:49;;;;;;;35.10;23.90;;;7.10;99.90;;;;;;5033845;28;20045;-73
2022/03/25 08:45:15;;;;;;;41.20;22.23;;;7.20;99.90;;;;;;5033465;28;20053;-73
2022/03/25 08:47:44;;;;;;;35.08;21.00;;;7.30;99.90;;;;;;5033884;28;20045;-73
2022/03/25 08:50:12;;;;;;;29.65;19.40;;;7.40;99.90;;;;;;5033246;28;20120;-73
2022/03/25 08:52:43;;;;;;;30.67;20.35;;;7.40;99.90;;;;;;5015967;28;20062;-74
2022/03/25 08:55:09;;;;;;;29.63;17.73;;;7.40;99.90;;;;;;5033358;28;20190;-74
2022/03/25 08:57:35;;;;;;;28.90;18.52;;;7.50;99.90;;;;;;5032589;28;20048;-75
2022/03/25 09:00:02;;;;;;;28.58;18.02;;;7.60;99.90;;;;;;5032276;28;20121;-77
2022/03/25 09:02:28;;;;;;;30.35;18.83;;;7.70;99.90;;;;;;5016028;28;20061;-73
2022/03/25 09:04:53;;;;;;;27.98;18.80;;;7.70;99.90;;;;;;5033491;28;20045;-74
2022/03/25 09:07:19;;;;;;;28.75;19.63;;;7.80;99.70;;;;;;5031852;28;20079;-79
2022/03/25 09:09:45;;;;;;;32.08;18.95;;;7.80;99.20;;;;;;5033380;28;20136;-73
2022/03/25 09:12:11;;;;;;;30.67;19.27;;;7.90;98.50;;;;;;5032695;28;20462;-74
2022/03/25 09:14:36;;;;;;;32.13;20.42;;;7.90;98.90;;;;;;5033265;28;20053;-74
2022/03/25 09:17:02;;;;;;;30.77;21.00;;;8.00;98.40;;;;;;5032794;28;20041;-74
2022/03/25 09:19:28;;;;;;;37.03;22.38;;;8.00;98.00;;;;;;5033214;28;20175;-73
2022/03/25 09:21:54;;;;;;;32.17;21.17;;;8.00;98.70;;;;;;5031957;28;20045;-73
2022/03/25 09:24:19;;;;;;;32.45;22.00;;;8.10;98.00;;;;;;5031366;28;20379;-73
2022/03/25 09:26:45;;;;;;;31.98;21.60;;;8.20;97.80;;;;;;5033001;28;20050;-73
2022/03/25 09:29:11;;;;;;;35.67;22.85;;;8.30;97.70;;;;;;5031177;28;20050;-79
2022/03/25 09:31:38;;;;;;;37.38;24.20;;;8.30;96.80;;;;;;4998889;28;20052;-73
2022/03/25 09:36:48;;;;;;;33.53;23.92;;;8.60;95.70;;;;;;5033017;28;20083;-73
2022/03/25 09:39:14;;;;;;;35.78;23.25;;;8.60;96.10;;;;;;5032387;28;20128;-74
2022/03/25 09:41:39;;;;;;;31.73;21.77;;;8.70;95.40;;;;;;5032795;28;20084;-75
2022/03/25 09:44:05;;;;;;;32.83;21.73;;;8.80;95.70;;;;;;5014877;28;20639;-73
2022/03/25 09:46:31;;;;;;;33.33;21.58;;;8.90;95.10;;;;;;5032808;28;20099;-73
2022/03/25 09:48:56;;;;;;;33.28;20.67;;;9.00;95.30;;;;;;5032464;28;20478;-73
2022/03/25 09:51:22;;;;;;;32.70;19.77;;;9.10;93.70;;;;;;5030985;28;20508;-73
2022/03/25 09:53:49;;;;;;;28.98;20.48;;;9.20;92.80;;;;;;5032132;28;20053;-73
2022/03/25 09:56:15;;;;;;;33.60;20.15;;;9.30;92.60;;;;;;4995303;28;20151;-74
2022/03/25 09:58:41;;;;;;;34.22;20.02;;;9.40;91.10;;;;;;5031119;28;20048;-73
2022/03/25 10:01:07;;;;;;;31.30;19.15;;;9.40;91.70;;;;;;5031526;28;20044;-73
2022/03/25 10:03:37;;;;;;;30.63;20.33;;;9.50;90.60;;;;;;5031999;28;20390;-74
2022/03/25 10:06:04;;;;;;;30.60;19.40;;;9.60;89.20;;;;;;5014668;28;20397;-73
2022/03/25 10:08:33;;;;;;;32.67;21.13;;;9.70;90.20;;;;;;5014649;28;20402;-73
2022/03/25 10:11:18;;;;;;;32.25;19.88;;;9.80;90.10;;;;;;5031872;28;20084;-73
2022/03/25 10:13:43;;;;;;;27.10;18.00;;;9.90;87.90;;;;;;5032024;28;20045;-73
2022/03/25 10:16:25;;;;;;;28.48;18.20;;;9.90;88.20;;;;;;5031062;28;20041;-72
2022/03/25 10:18:55;;;;;;;30.23;20.17;;;10.10;82.80;;;;;;5014361;28;20044;-73
2022/03/25 10:21:20;;;;;;;31.92;20.15;;;10.20;85.00;;;;;;5013783;28;20112;-74
2022/03/25 10:23:46;;;;;;;31.20;18.95;;;10.10;86.20;;;;;;5014418;28;20120;-73
2022/03/25 10:26:12;;;;;;;29.70;17.45;;;10.20;86.40;;;;;;5014472;28;20397;-73
2022/03/25 10:28:40;;;;;;;25.40;15.73;;;10.20;84.60;;;;;;5031097;28;20041;-73
2022/03/25 10:31:14;;;;;;;27.00;16.73;;;10.30;83.50;;;;;;5032314;28;20085;-77
2022/03/25 10:33:46;;;;;;;27.25;17.48;;;10.40;80.60;;;;;;5015106;28;20061;-73
2022/03/25 10:36:25;;;;;;;27.38;17.63;;;10.40;81.80;;;;;;5030889;28;20050;-73
2022/03/25 10:38:57;;;;;;;28.33;17.77;;;10.60;79.00;;;;;;5032545;28;20049;-73
2022/03/25 10:41:25;;;;;;;26.60;17.58;;;10.60;80.70;;;;;;5032026;28;20103;-74
2022/03/25 10:43:53;;;;;;;33.33;18.08;;;10.70;80.80;;;;;;5031154;28;20152;-73
2022/03/25 10:46:32;;;;;;;28.48;17.52;;;10.80;79.60;;;;;;5030782;28;20374;-74
2022/03/25 10:48:58;;;;;;;25.00;16.73;;;10.80;74.80;;;;;;5036091;28;20061;-74
2022/03/25 10:51:24;;;;;;;28.92;16.55;;;10.80;79.50;;;;;;5035734;28;20084;-74
2022/03/25 10:53:58;;;;;;;24.00;14.73;;;10.80;79.50;;;;;;5034853;28;20057;-74
2022/03/25 10:56:24;;;;;;;22.63;13.50;;;10.90;78.20;;;;;;5034591;28;20095;-73
2022/03/25 10:58:54;;;;;;;20.42;11.73;;;11.00;76.50;;;;;;5036053;28;20496;-73
2022/03/25 11:01:19;;;;;;;25.52;12.25;;;11.10;71.70;;;;;;5034413;28;20041;-74
2022/03/25 11:03:48;;;;;;;27.75;12.70;;;11.10;73.00;;;;;;5035931;28;20398;-74
2022/03/25 11:06:17;;;;;;;20.40;11.27;;;11.30;69.10;;;;;;5034222;28;20045;-74
2022/03/25 11:08:43;;;;;;;22.08;11.43;;;11.30;69.60;;;;;;5034597;28;20103;-74
2022/03/25 11:11:09;;;;;;;20.05;9.85;;;11.40;68.40;;;;;;5034578;28;20048;-74
2022/03/25 11:13:35;;;;;;;18.55;10.15;;;11.40;68.70;;;;;;5034183;28;20042;-74
2022/03/25 11:16:02;;;;;;;20.95;10.98;;;11.50;66.70;;;;;;5018336;28;20089;-74
2022/03/25 11:18:28;;;;;;;20.33;12.38;;;11.60;65.30;;;;;;5035202;28;20134;-74
2022/03/25 11:20:53;;;;;;;20.63;12.55;;;11.70;66.20;;;;;;5018320;28;20600;-74
2022/03/25 11:23:25;;;;;;;21.08;13.20;;;11.80;66.80;;;;;;5034057;28;20120;-74
2022/03/25 11:25:52;;;;;;;27.58;15.15;;;11.80;66.50;;;;;;5035566;28;20048;-74
2022/03/25 11:28:20;;;;;;;22.98;15.10;;;12.00;67.00;;;;;;5034983;28;20135;-74
2022/03/25 11:30:57;;;;;;;25.88;15.18;;;12.10;65.90;;;;;;5017879;28;20460;-74
2022/03/25 11:33:22;;;;;;;25.30;16.27;;;12.20;64.00;;;;;;5035118;28;20052;-74
2022/03/25 11:35:49;;;;;;;22.10;15.23;;;12.30;66.90;;;;;;5035398;28;20045;-74
2022/03/25 11:38:18;;;;;;;24.25;16.00;;;12.40;65.70;;;;;;5033634;28;20050;-78
2022/03/25 11:40:51;;;;;;;29.33;17.48;;;12.50;64.50;;;;;;5035242;28;20466;-74
2022/03/25 11:43:21;;;;;;;27.50;17.08;;;12.60;64.60;;;;;;5033584;28;20050;-74
2022/03/25 11:46:16;;;;;;;27.52;18.50;;;12.70;64.40;;;;;;5034029;28;20049;-74
2022/03/25 11:48:41;;;;;;;28.88;18.00;;;12.70;61.60;;;;;;5025909;28;20050;-74
2022/03/25 11:51:27;;;;;;;32.28;18.50;;;12.80;65.00;;;;;;5035036;28;20375;-74
2022/03/25 11:53:53;;;;;;;27.35;18.23;;;12.90;63.00;;;;;;5035064;28;20057;-74
2022/03/25 11:56:18;;;;;;;23.13;16.45;;;12.90;65.00;;;;;;5033269;28;20053;-74
2022/03/25 11:58:58;;;;;;;24.85;14.52;;;13.00;63.50;;;;;;5033626;28;20033;-74
2022/03/25 12:01:24;;;;;;;22.27;16.05;;;13.10;62.30;;;;;;5034455;28;20053;-74
2022/03/25 12:03:54;;;;;;;26.05;17.70;;;13.10;63.30;;;;;;5034867;28;20379;-74
2022/03/25 12:06:21;;;;;;;28.92;17.60;;;13.30;62.60;;;;;;5033200;28;20095;-74
2022/03/25 12:09:00;;;;;;;26.55;16.67;;;13.30;62.80;;;;;;5034635;28;20053;-74
2022/03/25 12:11:47;;;;;;;26.42;17.15;;;13.40;61.80;;;;;;5034250;28;20059;-74
2022/03/25 12:14:13;;;;;;;26.10;18.63;;;13.50;60.60;;;;;;5034717;28;20056;-74
2022/03/25 12:16:48;;;;;;;33.72;19.13;;;13.60;62.60;;;;;;5033036;28;20183;-74
2022/03/25 12:19:26;;;;;;;29.42;17.38;;;13.50;62.30;;;;;;5034186;28;20569;-74
2022/03/25 12:21:55;;;;;;;29.95;18.35;;;13.60;62.30;;;;;;5034537;28;20042;-74
2022/03/25 12:24:21;;;;;;;30.00;19.60;;;13.60;62.80;;;;;;5033314;28;20045;-74
2022/03/25 12:26:57;;;;;;;32.55;19.83;;;13.60;63.10;;;;;;5030176;28;20045;-74
2022/03/25 12:29:34;;;;;;;30.88;18.77;;;13.70;64.30;;;;;;5017144;28;20545;-74
2022/03/25 12:32:08;;;;;;;26.27;18.50;;;13.80;60.50;;;;;;5016347;28;20251;-74
2022/03/25 12:34:50;;;;;;;31.98;20.25;;;13.80;61.70;;;;;;5033557;28;20052;-74
2022/03/25 12:37:43;;;;;;;31.80;19.90;;;13.90;63.60;;;;;;5016301;28;20046;-74
2022/03/25 12:40:15;;;;;;;24.65;18.20;;;14.00;62.50;;;;;;5018813;28;20072;-74
2022/03/25 12:42:41;;;;;;;29.40;20.48;;;14.00;63.10;;;;;;5033354;28;20076;-74